Historyczne dane pomiarowe

Dodano dane terminowe – wersja testowa.

Dane z okresu 1951-2019

Wersja bazy: 1.34 [2019-03-16, lista zmian], aktualizacja planowana na 2019-04-15

Dane meteo z obszaru Polski uzyskane na podstawie danych udostępnionych przez Instytut Meteorologii i Gospodarki Wodnej – Państwowy Instytut Badawczy.

 

Wybierz Datę:    

       

TemperaturaWilgotnośćWiatrCiśnienieOpadyŚniegCzas trwania zjawisk
 Stacja t tx tn tng RH VA  wxwx mslp ppp RRR   cm mm wxwxwxwxwxwxwx
1987-08-14 15.3 20.2 12.2 9.1 85.5- 7.0 4.0---- 6.3------------
1987-08-13 15.1 19.5 11.7 9.6 79.3- 4.3 1.0---- 0.9------------
1987-08-12 13.4 19.5 6.9 3.2 74.3- 4.0 2.0---- 14.2------------
1987-08-11 12.6 16.4 10.0 9.6 78.5- 5.3 4.0---- 0.0------------
1987-08-10 12.9 16.5 9.8 6.6 88.3- 6.0 3.7---- 1.5------------
1987-08-09 15.0 22.3 10.8 6.1 82.3- 6.0 1.7---- 9.8------------
1987-08-08 14.6 20.2 9.6 7.1 76.0- 4.0 4.0---- 0.0------------
1987-08-07 11.8 18.5 4.9 0.7 74.8- 3.3 3.7---- 0.0------------
1987-08-06 9.8 12.5 8.3 5.6 83.0- 7.0 3.7---- 1.8------------
1987-08-05 11.1 15.3 8.6 5.1 85.5- 6.3 3.7---- 3.9------------
1987-08-04 14.1 17.6 11.8 10.1 74.0- 6.3 6.3---- 0.0------------
1987-08-03 14.8 19.5 10.8 9.1 74.8- 6.7 2.3---- 2.2------------
1987-08-02 13.8 15.7 11.3 9.6 78.5- 7.0 3.0---- 3.3------------
1987-08-01 14.7 17.2 13.7 12.1 88.5- 7.0 3.3---- 16.8------------
1987-07-31 15.0 17.3 11.8 11.6 83.8- 6.7 3.7---- 1.2------------
1987-07-30 17.9 23.5 14.4 12.2 78.3- 5.7 3.7---- 8.8------------
1987-07-29 14.1 18.0 11.0 8.1 81.5- 5.0 2.3---- 0.0------------
1987-07-28 12.6 14.2 10.8 10.6 80.0- 8.0 3.7---- 0.1------------
1987-07-27 12.0 16.5 9.3 7.8 82.5- 6.0 5.3---- 4.8------------
1987-07-26 12.9 16.0 11.0 9.6 73.0- 4.7 4.7---- 0.4------------
1987-07-25 15.9 22.1 13.1 11.6 83.5- 8.0 3.0---- 0.3------------
1987-07-24 19.8 24.0 13.3 11.9 72.3- 2.7 3.0---- 0.0------------
1987-07-23 19.0 25.0 9.8 9.6 80.3- 5.7 0.0---- 0.0------------
1987-07-22 17.5 23.5 9.8 7.9 84.0- 1.0 1.7---- 0.2------------
1987-07-21 14.9 18.9 13.5 10.8 92.0- 6.3 1.3---- 1.2------------
1987-07-20 17.8 23.4 14.3 13.8 80.0- 2.0 2.3---- 1.4------------
1987-07-19 16.6 21.0 13.9 13.5 87.3- 7.3 1.3---- 16.0------------
1987-07-18 18.5 25.6 16.7 15.1 76.8- 6.0 3.3---- 4.4------------
1987-07-17 22.6 27.4 16.9 14.4 78.0- 5.3 2.0---- 0.0------------
1987-07-16 20.3 25.8 13.9 11.8 80.3- 5.0 3.3---- 0.0------------
1987-07-15 18.3 24.4 9.3 6.1 71.3- 2.3 3.0---- 0.0------------
1987-07-14 16.1 21.6 6.9 3.7 70.0- 1.7 1.7---- 0.0------------
1987-07-13 17.3 20.2 12.7 8.8 70.3- 4.3 3.7---- 0.0------------
1987-07-12 21.1 25.7 16.6 11.8 71.0- 5.0 3.7---- 0.0------------
1987-07-11 18.2 24.8 10.1 6.6 70.5- 5.7 5.3---- 0.0------------
1987-07-10 15.6 18.8 10.1 7.9 62.8- 3.7 4.3---- 0.0------------
1987-07-09 16.4 19.5 14.3 13.6 75.3- 5.0 3.3---- 0.0------------
1987-07-08 19.3 25.1 16.1 11.8 84.5- 7.0 3.0---- 6.3------------
1987-07-07 19.8 26.4 9.8 7.0 63.3- 0.3 2.0---- 0.0------------
1987-07-06 17.1 23.6 8.2 5.3 72.5- 1.0 1.3---- 0.0------------
1987-07-05 15.3 21.0 9.4 6.3 70.8- 2.0 2.0---- 0.0------------
1987-07-04 17.7 21.0 15.2 12.6 78.8- 6.0 1.7---- 0.0------------
1987-07-03 18.5 24.1 11.3 9.6 78.3- 3.7 2.0---- 0.0------------
1987-07-02 19.5 23.4 16.9 16.1 80.5- 3.3 2.3---- 0.0------------
1987-07-01 23.2 30.4 20.0 17.1 83.8- 6.0 4.3---- 25.7------------
1987-06-30 24.3 29.3 15.0 11.6 72.0- 0.0 4.3---- 0.0------------
1987-06-29 21.5 27.8 13.9 10.7 78.5- 0.7 1.3---- 0.0------------
1987-06-28 17.8 22.2 12.9 8.1 86.3- 5.3 2.3---- 0.0------------
1987-06-27 17.4 22.7 14.6 13.8 83.8- 5.0 3.0---- 0.0------------
1987-06-26 15.7 23.0 8.8 5.0 80.3- 6.7 2.0---- 16.3------------
1987-06-25 13.0 16.2 11.0 10.2 85.8- 7.7 0.7---- 5.3------------
1987-06-24 13.9 17.0 11.5 7.9 87.5- 7.7 0.7---- 10.0------------
1987-06-23 13.2 18.2 9.3 5.3 89.8- 7.3 2.7---- 10.8------------
1987-06-22 13.5 15.7 11.0 10.3 81.8- 8.0 1.0---- 0.7------------
1987-06-21 15.3 17.7 13.1 10.4 85.8- 7.0 2.3---- 3.6------------
1987-06-20 15.2 21.3 5.7 2.4 70.5- 5.3 1.0---- 0.6------------
1987-06-19 13.1 17.7 8.4 6.3 67.0- 6.0 4.3---- 0.0------------
1987-06-18 9.5 13.9 7.5 3.7 85.5- 7.0 7.3---- 2.6------------
1987-06-17 11.7 15.9 9.2 8.0 64.0- 6.0 4.3---- 3.1------------
1987-06-16 10.4 15.7 8.2 8.0 87.3- 8.0 4.3---- 3.1------------
492.3 ms

 

Źródłem pochodzenia danych jest Instytut Meteorologii i Gospodarki Wodnej – Państwowy Instytut Badawczy. Dane Instytutu Meteorologii i Gospodarki Wodnej – Państwowego Instytutu Badawczego zostały przetworzone.

Dane źródłowe można odnaleźć na stronie https://dane.imgw.pl